sensor_id;sensor_type;location;lat;lon;timestamp;P1;durP1;ratioP1;P2;durP2;ratioP2
44720;SDS011;30450;52.534;13.398;2022-08-01T00:02:11;4.03;;;3.55;;
44720;SDS011;30450;52.534;13.398;2022-08-01T00:04:36;4.93;;;3.85;;
44720;SDS011;30450;52.534;13.398;2022-08-01T00:07:02;6.22;;;4.18;;
44720;SDS011;30450;52.534;13.398;2022-08-01T00:09:28;4.50;;;3.80;;
44720;SDS011;30450;52.534;13.398;2022-08-01T00:11:53;8.93;;;4.60;;
44720;SDS011;30450;52.534;13.398;2022-08-01T00:14:19;6.53;;;4.18;;
44720;SDS011;30450;52.534;13.398;2022-08-01T00:16:45;3.83;;;3.42;;
44720;SDS011;30450;52.534;13.398;2022-08-01T00:19:11;6.53;;;4.13;;
44720;SDS011;30450;52.534;13.398;2022-08-01T00:21:36;4.65;;;3.70;;
44720;SDS011;30450;52.534;13.398;2022-08-01T00:24:02;4.07;;;3.67;;
44720;SDS011;30450;52.534;13.398;2022-08-01T00:26:28;6.10;;;4.00;;
44720;SDS011;30450;52.534;13.398;2022-08-01T00:28:53;7.88;;;3.83;;
44720;SDS011;30450;52.534;13.398;2022-08-01T00:31:19;10.65;;;4.85;;
44720;SDS011;30450;52.534;13.398;2022-08-01T00:33:45;5.95;;;3.88;;
44720;SDS011;30450;52.534;13.398;2022-08-01T00:36:10;5.57;;;4.43;;
44720;SDS011;30450;52.534;13.398;2022-08-01T00:38:36;4.22;;;3.63;;
44720;SDS011;30450;52.534;13.398;2022-08-01T00:41:02;5.63;;;3.85;;
44720;SDS011;30450;52.534;13.398;2022-08-01T00:43:27;6.25;;;4.20;;
44720;SDS011;30450;52.534;13.398;2022-08-01T00:45:53;5.15;;;4.30;;
44720;SDS011;30450;52.534;13.398;2022-08-01T00:48:19;9.43;;;4.28;;
44720;SDS011;30450;52.534;13.398;2022-08-01T00:50:44;4.45;;;4.05;;
44720;SDS011;30450;52.534;13.398;2022-08-01T00:53:10;8.10;;;4.57;;
44720;SDS011;30450;52.534;13.398;2022-08-01T00:55:36;6.43;;;4.65;;
44720;SDS011;30450;52.534;13.398;2022-08-01T00:58:02;5.53;;;4.88;;
44720;SDS011;30450;52.534;13.398;2022-08-01T01:00:28;4.43;;;4.00;;
44720;SDS011;30450;52.534;13.398;2022-08-01T01:02:53;5.50;;;5.03;;
44720;SDS011;30450;52.534;13.398;2022-08-01T01:05:19;4.72;;;4.32;;
44720;SDS011;30450;52.534;13.398;2022-08-01T01:07:50;4.75;;;4.35;;
44720;SDS011;30450;52.534;13.398;2022-08-01T01:12:51;5.03;;;4.53;;
44720;SDS011;30450;52.534;13.398;2022-08-01T01:18:25;12.48;;;4.80;;
44720;SDS011;30450;52.534;13.398;2022-08-01T01:20:58;7.18;;;4.30;;
44720;SDS011;30450;52.534;13.398;2022-08-01T01:26:42;5.88;;;4.82;;
44720;SDS011;30450;52.534;13.398;2022-08-01T01:32:04;4.22;;;3.92;;
44720;SDS011;30450;52.534;13.398;2022-08-01T01:34:30;4.60;;;4.03;;
44720;SDS011;30450;52.534;13.398;2022-08-01T01:36:57;4.43;;;4.13;;
44720;SDS011;30450;52.534;13.398;2022-08-01T01:39:25;5.25;;;4.05;;
44720;SDS011;30450;52.534;13.398;2022-08-01T01:41:52;8.95;;;4.47;;
44720;SDS011;30450;52.534;13.398;2022-08-01T01:44:18;5.93;;;5.05;;
44720;SDS011;30450;52.534;13.398;2022-08-01T01:46:45;7.35;;;5.20;;
44720;SDS011;30450;52.534;13.398;2022-08-01T01:49:11;5.63;;;4.90;;
44720;SDS011;30450;52.534;13.398;2022-08-01T01:51:37;9.10;;;4.78;;
44720;SDS011;30450;52.534;13.398;2022-08-01T01:54:03;5.47;;;4.97;;
44720;SDS011;30450;52.534;13.398;2022-08-01T01:56:30;6.45;;;4.80;;
44720;SDS011;30450;52.534;13.398;2022-08-01T01:58:57;6.15;;;4.57;;
44720;SDS011;30450;52.534;13.398;2022-08-01T02:01:25;6.97;;;4.85;;
44720;SDS011;30450;52.534;13.398;2022-08-01T02:03:52;6.85;;;4.82;;
44720;SDS011;30450;52.534;13.398;2022-08-01T02:06:19;4.40;;;4.00;;
44720;SDS011;30450;52.534;13.398;2022-08-01T02:08:45;5.75;;;4.38;;
44720;SDS011;30450;52.534;13.398;2022-08-01T02:11:11;6.15;;;4.20;;
44720;SDS011;30450;52.534;13.398;2022-08-01T02:13:43;4.72;;;3.85;;
44720;SDS011;30450;52.534;13.398;2022-08-01T02:16:10;6.13;;;4.63;;
44720;SDS011;30450;52.534;13.398;2022-08-01T02:18:36;5.22;;;4.72;;
44720;SDS011;30450;52.534;13.398;2022-08-01T02:21:04;5.28;;;4.07;;
44720;SDS011;30450;52.534;13.398;2022-08-01T02:23:34;8.25;;;4.97;;
44720;SDS011;30450;52.534;13.398;2022-08-01T02:26:02;5.10;;;4.60;;
44720;SDS011;30450;52.534;13.398;2022-08-01T02:28:35;4.55;;;4.13;;
44720;SDS011;30450;52.534;13.398;2022-08-01T02:31:02;5.53;;;4.45;;
44720;SDS011;30450;52.534;13.398;2022-08-01T02:35:57;7.18;;;4.30;;
44720;SDS011;30450;52.534;13.398;2022-08-01T02:38:25;6.27;;;4.60;;
44720;SDS011;30450;52.534;13.398;2022-08-01T02:40:52;5.07;;;4.43;;
44720;SDS011;30450;52.534;13.398;2022-08-01T02:43:18;5.75;;;4.38;;
44720;SDS011;30450;52.534;13.398;2022-08-01T02:48:13;8.48;;;4.43;;
44720;SDS011;30450;52.534;13.398;2022-08-01T02:50:42;4.22;;;3.92;;
44720;SDS011;30450;52.534;13.398;2022-08-01T02:53:08;6.25;;;4.47;;
44720;SDS011;30450;52.534;13.398;2022-08-01T02:55:35;5.82;;;4.43;;
44720;SDS011;30450;52.534;13.398;2022-08-01T02:58:02;5.88;;;5.05;;
44720;SDS011;30450;52.534;13.398;2022-08-01T03:00:29;5.82;;;4.60;;
44720;SDS011;30450;52.534;13.398;2022-08-01T03:02:55;7.25;;;4.78;;
44720;SDS011;30450;52.534;13.398;2022-08-01T03:05:22;5.65;;;5.05;;
44720;SDS011;30450;52.534;13.398;2022-08-01T03:07:49;4.40;;;4.00;;
44720;SDS011;30450;52.534;13.398;2022-08-01T03:10:15;4.80;;;4.40;;
44720;SDS011;30450;52.534;13.398;2022-08-01T03:12:42;5.35;;;4.85;;
44720;SDS011;30450;52.534;13.398;2022-08-01T03:15:09;5.38;;;4.78;;
44720;SDS011;30450;52.534;13.398;2022-08-01T03:17:35;6.43;;;4.37;;
44720;SDS011;30450;52.534;13.398;2022-08-01T03:20:02;4.57;;;4.17;;
44720;SDS011;30450;52.534;13.398;2022-08-01T03:22:29;4.82;;;4.38;;
44720;SDS011;30450;52.534;13.398;2022-08-01T03:24:56;10.52;;;4.22;;
44720;SDS011;30450;52.534;13.398;2022-08-01T03:27:24;5.78;;;4.88;;
44720;SDS011;30450;52.534;13.398;2022-08-01T03:29:51;5.65;;;4.57;;
44720;SDS011;30450;52.534;13.398;2022-08-01T03:32:18;4.65;;;4.25;;
44720;SDS011;30450;52.534;13.398;2022-08-01T03:34:44;7.95;;;5.97;;
44720;SDS011;30450;52.534;13.398;2022-08-01T03:37:11;8.52;;;7.72;;
44720;SDS011;30450;52.534;13.398;2022-08-01T03:39:40;13.88;;;11.38;;
44720;SDS011;30450;52.534;13.398;2022-08-01T03:42:11;10.75;;;9.65;;
44720;SDS011;30450;52.534;13.398;2022-08-01T03:44:37;7.20;;;6.40;;
44720;SDS011;30450;52.534;13.398;2022-08-01T03:47:08;10.55;;;6.25;;
44720;SDS011;30450;52.534;13.398;2022-08-01T03:49:39;7.78;;;7.05;;
44720;SDS011;30450;52.534;13.398;2022-08-01T03:52:06;7.93;;;7.13;;
44720;SDS011;30450;52.534;13.398;2022-08-01T03:54:33;6.10;;;5.25;;
44720;SDS011;30450;52.534;13.398;2022-08-01T03:57:00;7.38;;;6.30;;
44720;SDS011;30450;52.534;13.398;2022-08-01T03:59:27;8.82;;;7.32;;
44720;SDS011;30450;52.534;13.398;2022-08-01T04:01:53;11.25;;;8.30;;
44720;SDS011;30450;52.534;13.398;2022-08-01T04:04:20;9.80;;;7.43;;
44720;SDS011;30450;52.534;13.398;2022-08-01T04:06:46;8.30;;;6.28;;
44720;SDS011;30450;52.534;13.398;2022-08-01T04:09:15;5.63;;;5.13;;
44720;SDS011;30450;52.534;13.398;2022-08-01T04:11:41;7.50;;;6.72;;
44720;SDS011;30450;52.534;13.398;2022-08-01T04:14:07;9.60;;;7.63;;
44720;SDS011;30450;52.534;13.398;2022-08-01T04:16:32;8.52;;;7.40;;
44720;SDS011;30450;52.534;13.398;2022-08-01T04:18:58;11.60;;;8.93;;
44720;SDS011;30450;52.534;13.398;2022-08-01T04:21:25;9.90;;;7.63;;
44720;SDS011;30450;52.534;13.398;2022-08-01T04:23:53;8.77;;;6.75;;
44720;SDS011;30450;52.534;13.398;2022-08-01T04:26:19;12.95;;;7.60;;
44720;SDS011;30450;52.534;13.398;2022-08-01T04:28:46;13.90;;;9.50;;
44720;SDS011;30450;52.534;13.398;2022-08-01T04:31:13;14.50;;;9.20;;
44720;SDS011;30450;52.534;13.398;2022-08-01T04:33:40;9.63;;;8.60;;
44720;SDS011;30450;52.534;13.398;2022-08-01T04:36:08;12.10;;;9.50;;
44720;SDS011;30450;52.534;13.398;2022-08-01T04:38:35;13.07;;;11.32;;
44720;SDS011;30450;52.534;13.398;2022-08-01T04:41:04;17.70;;;10.10;;
44720;SDS011;30450;52.534;13.398;2022-08-01T04:45:57;15.95;;;11.40;;
44720;SDS011;30450;52.534;13.398;2022-08-01T04:48:23;16.75;;;12.05;;
44720;SDS011;30450;52.534;13.398;2022-08-01T04:50:50;15.95;;;11.85;;
44720;SDS011;30450;52.534;13.398;2022-08-01T04:53:18;18.50;;;13.77;;
44720;SDS011;30450;52.534;13.398;2022-08-01T04:55:44;17.42;;;14.13;;
44720;SDS011;30450;52.534;13.398;2022-08-01T04:58:11;27.15;;;18.13;;
44720;SDS011;30450;52.534;13.398;2022-08-01T05:00:37;17.38;;;15.57;;
44720;SDS011;30450;52.534;13.398;2022-08-01T05:03:03;19.00;;;17.00;;
44720;SDS011;30450;52.534;13.398;2022-08-01T05:05:29;21.85;;;15.60;;
44720;SDS011;30450;52.534;13.398;2022-08-01T05:07:56;15.77;;;14.13;;
44720;SDS011;30450;52.534;13.398;2022-08-01T05:10:21;17.95;;;14.45;;
44720;SDS011;30450;52.534;13.398;2022-08-01T05:12:47;17.58;;;15.60;;
44720;SDS011;30450;52.534;13.398;2022-08-01T05:15:13;18.80;;;16.85;;
44720;SDS011;30450;52.534;13.398;2022-08-01T05:17:38;19.17;;;15.98;;
44720;SDS011;30450;52.534;13.398;2022-08-01T05:20:04;16.50;;;14.43;;
44720;SDS011;30450;52.534;13.398;2022-08-01T05:22:31;15.05;;;12.98;;
44720;SDS011;30450;52.534;13.398;2022-08-01T05:24:57;14.55;;;12.27;;
44720;SDS011;30450;52.534;13.398;2022-08-01T05:27:25;17.42;;;14.93;;
44720;SDS011;30450;52.534;13.398;2022-08-01T05:29:51;14.90;;;13.45;;
44720;SDS011;30450;52.534;13.398;2022-08-01T05:32:17;12.70;;;11.48;;
44720;SDS011;30450;52.534;13.398;2022-08-01T05:34:43;13.82;;;12.35;;
44720;SDS011;30450;52.534;13.398;2022-08-01T05:37:09;14.35;;;12.80;;
44720;SDS011;30450;52.534;13.398;2022-08-01T05:39:35;13.25;;;12.05;;
44720;SDS011;30450;52.534;13.398;2022-08-01T05:42:00;12.82;;;11.50;;
44720;SDS011;30450;52.534;13.398;2022-08-01T05:44:26;11.27;;;10.02;;
44720;SDS011;30450;52.534;13.398;2022-08-01T05:46:51;11.18;;;9.82;;
44720;SDS011;30450;52.534;13.398;2022-08-01T05:49:17;12.27;;;9.45;;
44720;SDS011;30450;52.534;13.398;2022-08-01T05:51:43;10.07;;;9.13;;
44720;SDS011;30450;52.534;13.398;2022-08-01T05:54:09;15.32;;;9.73;;
44720;SDS011;30450;52.534;13.398;2022-08-01T05:56:34;10.13;;;9.10;;
44720;SDS011;30450;52.534;13.398;2022-08-01T05:59:00;9.82;;;8.68;;
44720;SDS011;30450;52.534;13.398;2022-08-01T06:01:26;9.10;;;8.18;;
44720;SDS011;30450;52.534;13.398;2022-08-01T06:03:51;11.02;;;10.02;;
44720;SDS011;30450;52.534;13.398;2022-08-01T06:06:19;8.55;;;7.32;;
44720;SDS011;30450;52.534;13.398;2022-08-01T06:08:45;12.00;;;8.63;;
44720;SDS011;30450;52.534;13.398;2022-08-01T06:11:11;8.90;;;7.75;;
44720;SDS011;30450;52.534;13.398;2022-08-01T06:13:37;8.65;;;7.43;;
44720;SDS011;30450;52.534;13.398;2022-08-01T06:16:02;9.93;;;8.13;;
44720;SDS011;30450;52.534;13.398;2022-08-01T06:18:28;9.30;;;8.40;;
44720;SDS011;30450;52.534;13.398;2022-08-01T06:20:54;9.68;;;8.73;;
44720;SDS011;30450;52.534;13.398;2022-08-01T06:23:20;8.15;;;7.20;;
44720;SDS011;30450;52.534;13.398;2022-08-01T06:25:46;7.45;;;6.68;;
44720;SDS011;30450;52.534;13.398;2022-08-01T06:28:12;11.55;;;7.72;;
44720;SDS011;30450;52.534;13.398;2022-08-01T06:30:38;8.55;;;6.93;;
44720;SDS011;30450;52.534;13.398;2022-08-01T06:33:04;6.93;;;6.10;;
44720;SDS011;30450;52.534;13.398;2022-08-01T06:35:30;7.18;;;5.60;;
44720;SDS011;30450;52.534;13.398;2022-08-01T06:37:56;6.75;;;4.93;;
44720;SDS011;30450;52.534;13.398;2022-08-01T06:40:22;12.27;;;4.70;;
44720;SDS011;30450;52.534;13.398;2022-08-01T06:42:48;5.45;;;3.70;;
44720;SDS011;30450;52.534;13.398;2022-08-01T06:45:14;4.50;;;4.03;;
44720;SDS011;30450;52.534;13.398;2022-08-01T06:47:41;4.32;;;3.90;;
44720;SDS011;30450;52.534;13.398;2022-08-01T06:50:07;5.85;;;3.83;;
44720;SDS011;30450;52.534;13.398;2022-08-01T06:52:34;3.88;;;3.50;;
44720;SDS011;30450;52.534;13.398;2022-08-01T06:55:00;3.38;;;3.08;;
44720;SDS011;30450;52.534;13.398;2022-08-01T06:57:25;3.97;;;3.55;;
44720;SDS011;30450;52.534;13.398;2022-08-01T06:59:51;4.40;;;4.00;;
44720;SDS011;30450;52.534;13.398;2022-08-01T07:02:17;4.32;;;3.50;;
44720;SDS011;30450;52.534;13.398;2022-08-01T07:04:43;5.70;;;3.35;;
44720;SDS011;30450;52.534;13.398;2022-08-01T07:07:08;4.15;;;3.75;;
44720;SDS011;30450;52.534;13.398;2022-08-01T07:09:34;9.95;;;4.03;;
44720;SDS011;30450;52.534;13.398;2022-08-01T07:12:00;4.75;;;4.35;;
44720;SDS011;30450;52.534;13.398;2022-08-01T07:14:26;6.13;;;3.47;;
44720;SDS011;30450;52.534;13.398;2022-08-01T07:16:52;5.18;;;3.53;;
44720;SDS011;30450;52.534;13.398;2022-08-01T07:19:17;5.38;;;4.30;;
44720;SDS011;30450;52.534;13.398;2022-08-01T07:21:43;8.35;;;3.33;;
44720;SDS011;30450;52.534;13.398;2022-08-01T07:24:10;4.63;;;3.40;;
44720;SDS011;30450;52.534;13.398;2022-08-01T07:26:36;3.42;;;3.13;;
44720;SDS011;30450;52.534;13.398;2022-08-01T07:29:01;4.32;;;3.58;;
44720;SDS011;30450;52.534;13.398;2022-08-01T07:31:28;4.80;;;3.80;;
44720;SDS011;30450;52.534;13.398;2022-08-01T07:33:54;4.65;;;4.22;;
44720;SDS011;30450;52.534;13.398;2022-08-01T07:36:19;5.40;;;4.35;;
44720;SDS011;30450;52.534;13.398;2022-08-01T07:38:45;6.82;;;4.13;;
44720;SDS011;30450;52.534;13.398;2022-08-01T07:41:11;5.40;;;3.97;;
44720;SDS011;30450;52.534;13.398;2022-08-01T07:43:37;5.05;;;4.55;;
44720;SDS011;30450;52.534;13.398;2022-08-01T07:46:03;5.25;;;3.90;;
44720;SDS011;30450;52.534;13.398;2022-08-01T07:48:29;4.03;;;3.63;;
44720;SDS011;30450;52.534;13.398;2022-08-01T07:50:55;5.30;;;3.30;;
44720;SDS011;30450;52.534;13.398;2022-08-01T07:53:21;3.72;;;3.30;;
44720;SDS011;30450;52.534;13.398;2022-08-01T07:55:47;4.43;;;3.60;;
44720;SDS011;30450;52.534;13.398;2022-08-01T07:58:13;5.60;;;4.07;;
44720;SDS011;30450;52.534;13.398;2022-08-01T08:00:38;5.25;;;4.75;;
44720;SDS011;30450;52.534;13.398;2022-08-01T08:03:04;5.05;;;4.18;;
44720;SDS011;30450;52.534;13.398;2022-08-01T08:05:30;4.90;;;4.50;;
44720;SDS011;30450;52.534;13.398;2022-08-01T08:07:56;5.30;;;3.65;;
44720;SDS011;30450;52.534;13.398;2022-08-01T08:10:22;7.07;;;5.00;;
44720;SDS011;30450;52.534;13.398;2022-08-01T08:12:48;5.70;;;5.20;;
44720;SDS011;30450;52.534;13.398;2022-08-01T08:15:14;6.20;;;5.60;;
44720;SDS011;30450;52.534;13.398;2022-08-01T08:17:39;7.00;;;5.18;;
44720;SDS011;30450;52.534;13.398;2022-08-01T08:20:05;6.88;;;5.43;;
44720;SDS011;30450;52.534;13.398;2022-08-01T08:22:32;8.73;;;4.80;;
44720;SDS011;30450;52.534;13.398;2022-08-01T08:24:57;4.40;;;4.00;;
44720;SDS011;30450;52.534;13.398;2022-08-01T08:27:23;6.75;;;4.57;;
44720;SDS011;30450;52.534;13.398;2022-08-01T08:29:49;4.32;;;3.92;;
44720;SDS011;30450;52.534;13.398;2022-08-01T08:32:15;3.60;;;3.33;;
44720;SDS011;30450;52.534;13.398;2022-08-01T08:34:40;6.80;;;3.40;;
44720;SDS011;30450;52.534;13.398;2022-08-01T08:37:07;5.30;;;3.42;;
44720;SDS011;30450;52.534;13.398;2022-08-01T08:39:32;6.28;;;3.55;;
44720;SDS011;30450;52.534;13.398;2022-08-01T08:42:04;4.60;;;3.05;;
44720;SDS011;30450;52.534;13.398;2022-08-01T08:44:31;4.47;;;3.20;;
44720;SDS011;30450;52.534;13.398;2022-08-01T08:46:57;4.20;;;3.78;;
44720;SDS011;30450;52.534;13.398;2022-08-01T08:49:25;3.10;;;2.83;;
44720;SDS011;30450;52.534;13.398;2022-08-01T08:51:52;7.22;;;3.03;;
44720;SDS011;30450;52.534;13.398;2022-08-01T08:54:19;2.17;;;2.08;;
44720;SDS011;30450;52.534;13.398;2022-08-01T08:59:12;1.63;;;1.52;;
44720;SDS011;30450;52.534;13.398;2022-08-01T09:01:39;3.90;;;2.47;;
44720;SDS011;30450;52.534;13.398;2022-08-01T09:04:05;4.97;;;2.10;;
44720;SDS011;30450;52.534;13.398;2022-08-01T09:06:31;3.33;;;2.05;;
44720;SDS011;30450;52.534;13.398;2022-08-01T09:08:57;2.22;;;2.00;;
44720;SDS011;30450;52.534;13.398;2022-08-01T09:11:23;2.25;;;1.38;;
44720;SDS011;30450;52.534;13.398;2022-08-01T09:16:29;2.60;;;1.85;;
44720;SDS011;30450;52.534;13.398;2022-08-01T09:19:05;1.70;;;1.50;;
44720;SDS011;30450;52.534;13.398;2022-08-01T09:21:31;1.98;;;1.80;;
44720;SDS011;30450;52.534;13.398;2022-08-01T09:23:57;3.10;;;1.33;;
44720;SDS011;30450;52.534;13.398;2022-08-01T09:28:51;2.03;;;1.48;;
44720;SDS011;30450;52.534;13.398;2022-08-01T09:31:18;1.95;;;1.50;;
44720;SDS011;30450;52.534;13.398;2022-08-01T09:33:58;5.95;;;2.50;;
44720;SDS011;30450;52.534;13.398;2022-08-01T09:36:25;3.83;;;1.85;;
44720;SDS011;30450;52.534;13.398;2022-08-01T09:38:51;3.00;;;1.90;;
44720;SDS011;30450;52.534;13.398;2022-08-01T09:41:17;5.10;;;2.08;;
44720;SDS011;30450;52.534;13.398;2022-08-01T09:43:53;3.25;;;2.40;;
44720;SDS011;30450;52.534;13.398;2022-08-01T09:46:19;2.28;;;2.08;;
44720;SDS011;30450;52.534;13.398;2022-08-01T09:48:54;3.42;;;2.17;;
44720;SDS011;30450;52.534;13.398;2022-08-01T09:51:27;2.63;;;2.28;;
44720;SDS011;30450;52.534;13.398;2022-08-01T09:53:53;5.75;;;2.13;;
44720;SDS011;30450;52.534;13.398;2022-08-01T09:56:20;3.35;;;2.42;;
44720;SDS011;30450;52.534;13.398;2022-08-01T09:58:49;2.40;;;2.20;;
44720;SDS011;30450;52.534;13.398;2022-08-01T10:01:16;2.50;;;2.30;;
44720;SDS011;30450;52.534;13.398;2022-08-01T10:03:41;3.03;;;2.40;;
44720;SDS011;30450;52.534;13.398;2022-08-01T10:06:19;3.53;;;2.53;;
44720;SDS011;30450;52.534;13.398;2022-08-01T10:08:46;2.33;;;2.00;;
44720;SDS011;30450;52.534;13.398;2022-08-01T10:11:12;3.88;;;2.08;;
44720;SDS011;30450;52.534;13.398;2022-08-01T10:13:37;2.05;;;1.88;;
44720;SDS011;30450;52.534;13.398;2022-08-01T10:16:04;2.17;;;2.00;;
44720;SDS011;30450;52.534;13.398;2022-08-01T10:18:31;2.38;;;2.08;;
44720;SDS011;30450;52.534;13.398;2022-08-01T10:20:57;4.03;;;2.33;;
44720;SDS011;30450;52.534;13.398;2022-08-01T10:23:27;3.22;;;2.22;;
44720;SDS011;30450;52.534;13.398;2022-08-01T10:25:55;3.85;;;1.83;;
44720;SDS011;30450;52.534;13.398;2022-08-01T10:28:23;3.28;;;2.20;;
44720;SDS011;30450;52.534;13.398;2022-08-01T10:30:50;2.58;;;2.33;;
44720;SDS011;30450;52.534;13.398;2022-08-01T10:33:16;3.63;;;2.47;;
44720;SDS011;30450;52.534;13.398;2022-08-01T10:35:44;2.00;;;1.70;;
44720;SDS011;30450;52.534;13.398;2022-08-01T10:38:10;2.85;;;2.00;;
44720;SDS011;30450;52.534;13.398;2022-08-01T10:40:37;5.03;;;2.55;;
44720;SDS011;30450;52.534;13.398;2022-08-01T10:43:02;2.00;;;1.90;;
44720;SDS011;30450;52.534;13.398;2022-08-01T10:45:29;2.40;;;1.80;;
44720;SDS011;30450;52.534;13.398;2022-08-01T10:51:00;2.30;;;1.95;;
44720;SDS011;30450;52.534;13.398;2022-08-01T10:53:27;2.92;;;1.45;;
44720;SDS011;30450;52.534;13.398;2022-08-01T10:58:25;1.80;;;1.70;;
44720;SDS011;30450;52.534;13.398;2022-08-01T11:03:36;4.18;;;2.00;;
44720;SDS011;30450;52.534;13.398;2022-08-01T11:06:03;4.10;;;1.75;;
44720;SDS011;30450;52.534;13.398;2022-08-01T11:08:29;1.35;;;1.10;;
44720;SDS011;30450;52.534;13.398;2022-08-01T11:11:02;2.88;;;1.35;;
44720;SDS011;30450;52.534;13.398;2022-08-01T11:16:30;1.80;;;1.33;;
44720;SDS011;30450;52.534;13.398;2022-08-01T11:18:56;2.90;;;1.50;;
44720;SDS011;30450;52.534;13.398;2022-08-01T11:21:22;2.03;;;1.30;;
44720;SDS011;30450;52.534;13.398;2022-08-01T11:23:51;2.38;;;1.45;;
44720;SDS011;30450;52.534;13.398;2022-08-01T11:26:18;2.10;;;1.50;;
44720;SDS011;30450;52.534;13.398;2022-08-01T11:28:45;4.43;;;1.92;;
44720;SDS011;30450;52.534;13.398;2022-08-01T11:38:42;2.08;;;1.88;;
44720;SDS011;30450;52.534;13.398;2022-08-01T11:41:21;2.80;;;1.80;;
44720;SDS011;30450;52.534;13.398;2022-08-01T11:43:57;2.20;;;1.98;;
44720;SDS011;30450;52.534;13.398;2022-08-01T11:51:55;2.83;;;1.80;;
44720;SDS011;30450;52.534;13.398;2022-08-01T11:54:24;3.42;;;1.50;;
44720;SDS011;30450;52.534;13.398;2022-08-01T11:56:53;3.85;;;1.73;;
44720;SDS011;30450;52.534;13.398;2022-08-01T11:59:21;3.53;;;1.15;;
44720;SDS011;30450;52.534;13.398;2022-08-01T12:01:46;3.20;;;1.53;;
44720;SDS011;30450;52.534;13.398;2022-08-01T12:04:12;1.35;;;1.02;;
44720;SDS011;30450;52.534;13.398;2022-08-01T12:06:41;3.53;;;1.23;;
44720;SDS011;30450;52.534;13.398;2022-08-01T12:11:34;2.03;;;1.35;;
44720;SDS011;30450;52.534;13.398;2022-08-01T12:14:02;0.90;;;0.90;;
44720;SDS011;30450;52.534;13.398;2022-08-01T12:16:27;1.83;;;1.00;;
44720;SDS011;30450;52.534;13.398;2022-08-01T12:18:53;2.30;;;1.20;;
44720;SDS011;30450;52.534;13.398;2022-08-01T12:21:19;1.30;;;1.20;;
44720;SDS011;30450;52.534;13.398;2022-08-01T12:23:44;1.42;;;1.13;;
44720;SDS011;30450;52.534;13.398;2022-08-01T12:26:10;3.78;;;1.15;;
44720;SDS011;30450;52.534;13.398;2022-08-01T12:28:39;1.23;;;1.13;;
44720;SDS011;30450;52.534;13.398;2022-08-01T12:31:05;1.55;;;1.13;;
44720;SDS011;30450;52.534;13.398;2022-08-01T12:33:30;1.20;;;1.10;;
44720;SDS011;30450;52.534;13.398;2022-08-01T12:35:59;2.70;;;1.25;;
44720;SDS011;30450;52.534;13.398;2022-08-01T12:38:25;1.75;;;1.52;;
44720;SDS011;30450;52.534;13.398;2022-08-01T12:40:52;2.13;;;1.67;;
44720;SDS011;30450;52.534;13.398;2022-08-01T12:43:18;1.50;;;1.40;;
44720;SDS011;30450;52.534;13.398;2022-08-01T12:45:45;5.10;;;1.98;;
44720;SDS011;30450;52.534;13.398;2022-08-01T12:48:13;3.40;;;1.67;;
44720;SDS011;30450;52.534;13.398;2022-08-01T12:50:41;1.27;;;1.17;;
44720;SDS011;30450;52.534;13.398;2022-08-01T12:53:07;3.03;;;1.20;;
44720;SDS011;30450;52.534;13.398;2022-08-01T12:55:34;3.70;;;1.70;;
44720;SDS011;30450;52.534;13.398;2022-08-01T12:58:10;2.25;;;1.33;;
44720;SDS011;30450;52.534;13.398;2022-08-01T13:00:37;2.17;;;1.42;;
44720;SDS011;30450;52.534;13.398;2022-08-01T13:03:09;1.75;;;1.33;;
44720;SDS011;30450;52.534;13.398;2022-08-01T13:05:42;1.15;;;1.10;;
44720;SDS011;30450;52.534;13.398;2022-08-01T13:08:10;5.32;;;1.45;;
44720;SDS011;30450;52.534;13.398;2022-08-01T13:10:36;4.90;;;1.58;;
44720;SDS011;30450;52.534;13.398;2022-08-01T13:13:02;1.75;;;1.55;;
44720;SDS011;30450;52.534;13.398;2022-08-01T13:15:29;2.08;;;1.50;;
44720;SDS011;30450;52.534;13.398;2022-08-01T13:17:58;2.40;;;1.75;;
44720;SDS011;30450;52.534;13.398;2022-08-01T13:22:53;2.40;;;1.77;;
44720;SDS011;30450;52.534;13.398;2022-08-01T13:25:19;2.75;;;1.95;;
44720;SDS011;30450;52.534;13.398;2022-08-01T13:27:45;2.75;;;1.80;;
44720;SDS011;30450;52.534;13.398;2022-08-01T13:30:14;1.50;;;1.40;;
44720;SDS011;30450;52.534;13.398;2022-08-01T13:32:40;3.67;;;2.00;;
44720;SDS011;30450;52.534;13.398;2022-08-01T13:37:33;5.03;;;1.48;;
44720;SDS011;30450;52.534;13.398;2022-08-01T13:39:59;2.85;;;1.33;;
44720;SDS011;30450;52.534;13.398;2022-08-01T13:42:24;2.13;;;1.50;;
44720;SDS011;30450;52.534;13.398;2022-08-01T13:44:50;6.55;;;1.75;;
44720;SDS011;30450;52.534;13.398;2022-08-01T13:47:16;9.80;;;1.33;;
44720;SDS011;30450;52.534;13.398;2022-08-01T13:49:41;2.95;;;0.98;;
44720;SDS011;30450;52.534;13.398;2022-08-01T13:52:07;1.38;;;1.13;;
44720;SDS011;30450;52.534;13.398;2022-08-01T13:54:33;2.80;;;1.35;;
44720;SDS011;30450;52.534;13.398;2022-08-01T13:56:59;2.72;;;1.20;;
44720;SDS011;30450;52.534;13.398;2022-08-01T13:59:25;3.58;;;1.23;;
44720;SDS011;30450;52.534;13.398;2022-08-01T14:01:50;2.95;;;1.50;;
44720;SDS011;30450;52.534;13.398;2022-08-01T14:04:16;5.22;;;2.03;;
44720;SDS011;30450;52.534;13.398;2022-08-01T14:06:42;2.75;;;2.15;;
44720;SDS011;30450;52.534;13.398;2022-08-01T14:09:08;3.10;;;1.65;;
44720;SDS011;30450;52.534;13.398;2022-08-01T14:11:33;2.20;;;1.45;;
44720;SDS011;30450;52.534;13.398;2022-08-01T14:13:59;8.02;;;2.03;;
44720;SDS011;30450;52.534;13.398;2022-08-01T14:16:25;2.53;;;1.73;;
44720;SDS011;30450;52.534;13.398;2022-08-01T14:18:51;2.58;;;1.52;;
44720;SDS011;30450;52.534;13.398;2022-08-01T14:21:16;3.70;;;1.55;;
44720;SDS011;30450;52.534;13.398;2022-08-01T14:23:42;2.83;;;1.65;;
44720;SDS011;30450;52.534;13.398;2022-08-01T14:26:08;2.38;;;1.95;;
44720;SDS011;30450;52.534;13.398;2022-08-01T14:28:35;3.65;;;2.10;;
44720;SDS011;30450;52.534;13.398;2022-08-01T14:31:01;3.33;;;1.63;;
44720;SDS011;30450;52.534;13.398;2022-08-01T14:33:27;3.35;;;1.83;;
44720;SDS011;30450;52.534;13.398;2022-08-01T14:35:53;1.08;;;1.08;;
44720;SDS011;30450;52.534;13.398;2022-08-01T14:38:18;2.63;;;1.70;;
44720;SDS011;30450;52.534;13.398;2022-08-01T14:40:44;5.30;;;1.27;;
44720;SDS011;30450;52.534;13.398;2022-08-01T14:43:12;1.13;;;1.00;;
44720;SDS011;30450;52.534;13.398;2022-08-01T14:45:39;1.30;;;1.17;;
44720;SDS011;30450;52.534;13.398;2022-08-01T14:48:05;1.30;;;1.20;;
44720;SDS011;30450;52.534;13.398;2022-08-01T14:50:31;2.75;;;1.50;;
44720;SDS011;30450;52.534;13.398;2022-08-01T14:52:56;3.80;;;1.65;;
44720;SDS011;30450;52.534;13.398;2022-08-01T14:55:22;1.75;;;1.65;;
44720;SDS011;30450;52.534;13.398;2022-08-01T15:00:15;2.78;;;2.10;;
44720;SDS011;30450;52.534;13.398;2022-08-01T15:02:41;3.53;;;2.10;;
44720;SDS011;30450;52.534;13.398;2022-08-01T15:05:07;4.63;;;1.90;;
44720;SDS011;30450;52.534;13.398;2022-08-01T15:07:34;3.08;;;2.13;;
44720;SDS011;30450;52.534;13.398;2022-08-01T15:10:00;4.22;;;1.88;;
44720;SDS011;30450;52.534;13.398;2022-08-01T15:12:26;3.30;;;1.60;;
44720;SDS011;30450;52.534;13.398;2022-08-01T15:14:52;2.17;;;1.50;;
44720;SDS011;30450;52.534;13.398;2022-08-01T15:17:18;1.63;;;1.30;;
44720;SDS011;30450;52.534;13.398;2022-08-01T15:19:45;1.48;;;1.23;;
44720;SDS011;30450;52.534;13.398;2022-08-01T15:22:11;2.10;;;1.23;;
44720;SDS011;30450;52.534;13.398;2022-08-01T15:24:37;1.80;;;1.20;;
44720;SDS011;30450;52.534;13.398;2022-08-01T15:27:03;1.90;;;1.60;;
44720;SDS011;30450;52.534;13.398;2022-08-01T15:29:29;5.10;;;1.50;;